createdAt,value
2022-10-08T00:00:47.148Z,1004.48
2022-10-08T00:05:47.003Z,1004.47
2022-10-08T00:10:46.932Z,1004.49
2022-10-08T00:15:46.940Z,1004.46
2022-10-08T00:20:46.807Z,1004.55
2022-10-08T00:25:46.749Z,1004.38
2022-10-08T00:30:46.645Z,1004.33
2022-10-08T00:35:46.586Z,1004.29
2022-10-08T00:40:46.519Z,1004.23
2022-10-08T00:45:46.518Z,1004.16
2022-10-08T00:50:46.686Z,1004.14
2022-10-08T00:55:46.313Z,1004.08
2022-10-08T01:00:46.328Z,1003.97
2022-10-08T01:05:46.187Z,1003.96
2022-10-08T01:10:46.120Z,1003.90
2022-10-08T01:15:46.056Z,1003.87
2022-10-08T01:20:46.090Z,1003.84
2022-10-08T01:25:45.935Z,1003.81
2022-10-08T01:30:45.847Z,1003.75
2022-10-08T01:35:45.804Z,1003.70
2022-10-08T01:40:45.726Z,1003.61
2022-10-08T01:45:45.692Z,1003.59
2022-10-08T01:50:45.609Z,1003.54
2022-10-08T01:55:45.544Z,1003.59
2022-10-08T02:00:45.546Z,1003.44
2022-10-08T02:05:45.406Z,1003.32
2022-10-08T02:10:45.353Z,1003.35
2022-10-08T02:15:45.303Z,1003.20
2022-10-08T02:20:45.206Z,1003.18
2022-10-08T02:25:45.191Z,1003.16
2022-10-08T02:30:45.068Z,1003.11
2022-10-08T02:35:44.998Z,1003.07
2022-10-08T02:40:44.936Z,1003.07
2022-10-08T02:45:44.895Z,1003.12
2022-10-08T02:50:51.853Z,1003.17
2022-10-08T02:55:44.732Z,1003.12
2022-10-08T03:00:44.702Z,1003.19
2022-10-08T03:05:44.603Z,1003.17
2022-10-08T03:10:44.563Z,1003.14
2022-10-08T03:15:44.504Z,1003.09
2022-10-08T03:20:44.411Z,1003.18
2022-10-08T03:25:44.382Z,1003.13
2022-10-08T03:30:44.358Z,1003.23
2022-10-08T03:35:44.216Z,1003.17
2022-10-08T03:40:44.155Z,1003.17
2022-10-08T03:45:44.133Z,1003.21
2022-10-08T03:50:44.038Z,1003.16
2022-10-08T03:55:43.963Z,1003.15
2022-10-08T04:00:43.903Z,1003.11
2022-10-08T04:05:43.830Z,1003.21
2022-10-08T04:10:43.774Z,1003.19
2022-10-08T04:15:43.754Z,1003.12
2022-10-08T04:20:43.644Z,1003.15
2022-10-08T04:25:43.591Z,1003.20
2022-10-08T04:30:43.611Z,1003.16
2022-10-08T04:35:43.622Z,1003.19
2022-10-08T04:40:43.373Z,1003.20
2022-10-08T04:45:43.320Z,1003.11
2022-10-08T04:50:43.270Z,1003.14
2022-10-08T04:55:43.179Z,1003.24
2022-10-08T05:00:43.152Z,1003.23
2022-10-08T05:05:43.056Z,1003.29
2022-10-08T05:10:43.015Z,1003.19
2022-10-08T05:15:42.949Z,1003.19
2022-10-08T05:20:42.871Z,1003.22
2022-10-08T05:25:42.808Z,1003.26
2022-10-08T05:30:42.735Z,1003.38
2022-10-08T05:35:42.682Z,1003.33
2022-10-08T05:40:42.768Z,1003.41
2022-10-08T05:45:42.516Z,1003.30
2022-10-08T05:50:42.472Z,1003.46
2022-10-08T05:55:43.118Z,1003.51
2022-10-08T06:00:42.339Z,1003.64
2022-10-08T06:05:42.297Z,1003.74
2022-10-08T06:10:42.268Z,1003.81
2022-10-08T06:15:42.109Z,1003.77
2022-10-08T06:20:42.052Z,1003.94
2022-10-08T06:25:41.999Z,1004.05
2022-10-08T06:30:41.920Z,1004.14
2022-10-08T06:35:41.848Z,1004.19
2022-10-08T06:40:41.780Z,1004.16
2022-10-08T06:45:41.822Z,1004.19
2022-10-08T06:50:41.662Z,1004.19
2022-10-08T06:55:41.638Z,1004.16
2022-10-08T07:00:41.658Z,1004.23
2022-10-08T07:05:41.460Z,1004.24
2022-10-08T07:10:41.525Z,1004.38
2022-10-08T07:15:41.382Z,1004.42
2022-10-08T07:20:41.264Z,1004.35
2022-10-08T07:25:41.202Z,1004.33
2022-10-08T07:30:41.126Z,1004.33
2022-10-08T07:35:41.054Z,1004.39
2022-10-08T07:40:41.022Z,1004.35
2022-10-08T07:45:41.003Z,1004.48
2022-10-08T07:50:40.888Z,1004.39
2022-10-08T07:55:40.824Z,1004.48
2022-10-08T08:00:41.041Z,1004.51
2022-10-08T08:05:40.732Z,1004.54
2022-10-08T08:10:40.659Z,1004.55
2022-10-08T08:15:40.568Z,1004.56
2022-10-08T08:20:40.553Z,1004.40
2022-10-08T08:25:40.440Z,1004.38
2022-10-08T08:30:40.645Z,1004.42
2022-10-08T08:35:40.267Z,1004.51
2022-10-08T08:40:40.633Z,1004.48
2022-10-08T08:45:48.007Z,1004.46
2022-10-08T08:50:43.541Z,1004.46
2022-10-08T08:55:41.040Z,1004.48
2022-10-08T09:00:40.039Z,1004.49
2022-10-08T09:05:39.914Z,1004.56
2022-10-08T09:10:39.832Z,1004.63
2022-10-08T09:15:39.890Z,1004.61
2022-10-08T09:20:40.461Z,1004.69
2022-10-08T09:25:39.675Z,1004.65
2022-10-08T09:30:39.662Z,1004.61
2022-10-08T09:35:39.488Z,1004.78
2022-10-08T09:40:39.445Z,1004.74
2022-10-08T09:45:39.423Z,1004.70
2022-10-08T09:50:39.293Z,1004.80
2022-10-08T09:55:39.249Z,1004.89
2022-10-08T10:00:39.165Z,1004.79
2022-10-08T10:05:39.141Z,1004.86
2022-10-08T10:10:39.084Z,1004.91
2022-10-08T10:15:38.988Z,1004.93
2022-10-08T10:20:38.893Z,1004.93
2022-10-08T10:25:38.911Z,1004.98
2022-10-08T10:30:38.840Z,1005.09
2022-10-08T10:35:38.716Z,1005.17
2022-10-08T10:40:38.686Z,1005.12
2022-10-08T10:45:38.731Z,1004.98
2022-10-08T10:50:38.602Z,1004.95
2022-10-08T10:55:38.444Z,1004.96
2022-10-08T11:00:38.488Z,1005.09
2022-10-08T11:05:38.360Z,1005.12
2022-10-08T11:10:38.229Z,1004.94
2022-10-08T11:15:38.226Z,1005.00
2022-10-08T11:20:38.134Z,1004.83
2022-10-08T11:25:55.993Z,1004.87
2022-10-08T11:30:39.018Z,1004.83
2022-10-08T11:35:37.905Z,1004.91
2022-10-08T11:40:37.919Z,1004.94
2022-10-08T11:45:37.816Z,1004.97
2022-10-08T11:50:37.725Z,1004.89
2022-10-08T11:55:37.654Z,1004.84
2022-10-08T12:00:37.592Z,1004.88
2022-10-08T12:05:37.704Z,1004.84
2022-10-08T12:10:37.517Z,1004.87
2022-10-08T12:15:37.452Z,1004.73
2022-10-08T12:20:37.367Z,1004.86
2022-10-08T12:25:37.255Z,1004.81
2022-10-08T12:30:37.215Z,1004.81
2022-10-08T12:35:37.297Z,1004.84
2022-10-08T12:40:37.141Z,1004.85
2022-10-08T12:45:37.094Z,1004.80
2022-10-08T12:50:37.006Z,1004.76
2022-10-08T12:55:38.223Z,1004.72
2022-10-08T13:00:36.870Z,1004.62
2022-10-08T13:05:36.720Z,1004.75
2022-10-08T13:10:36.851Z,1004.65
2022-10-08T13:15:36.599Z,1004.75
2022-10-08T13:20:36.542Z,1004.79
2022-10-08T13:25:36.475Z,1004.84
2022-10-08T13:30:36.422Z,1004.81
2022-10-08T13:35:36.369Z,1004.88
2022-10-08T13:40:36.284Z,1004.95
2022-10-08T13:45:36.214Z,1004.83
2022-10-08T13:50:36.141Z,1004.92
2022-10-08T13:55:36.077Z,1004.98
2022-10-08T14:00:36.034Z,1004.98
2022-10-08T14:05:35.990Z,1005.06
2022-10-08T14:10:35.877Z,1005.18
2022-10-08T14:15:35.909Z,1005.17
2022-10-08T14:20:35.859Z,1005.35
2022-10-08T14:25:35.696Z,1005.34
2022-10-08T14:30:35.616Z,1005.53
2022-10-08T14:35:35.542Z,1005.53
2022-10-08T14:40:35.482Z,1005.51
2022-10-08T14:45:35.473Z,1005.60
2022-10-08T14:50:35.371Z,1005.54
2022-10-08T14:55:49.204Z,1005.56
2022-10-08T15:00:36.299Z,1005.64
2022-10-08T15:05:35.163Z,1005.70
2022-10-08T15:10:35.130Z,1005.76
2022-10-08T15:15:35.034Z,1006.00
2022-10-08T15:20:35.016Z,1006.03
2022-10-08T15:25:34.905Z,1006.18
2022-10-08T15:30:34.919Z,1006.32
2022-10-08T15:35:34.783Z,1006.27
2022-10-08T15:40:34.743Z,1006.40
2022-10-08T15:45:34.700Z,1006.28
2022-10-08T15:50:34.592Z,1006.43
2022-10-08T15:55:34.515Z,1006.59
2022-10-08T16:00:37.952Z,1006.73
2022-10-08T16:05:34.434Z,1006.65
2022-10-08T16:10:34.317Z,1006.70
2022-10-08T16:15:34.271Z,1006.63
2022-10-08T16:20:34.234Z,1006.80
2022-10-08T16:25:34.337Z,1006.83
2022-10-08T16:30:34.731Z,1006.91
2022-10-08T16:35:33.999Z,1007.03
2022-10-08T16:40:33.949Z,1007.05
2022-10-08T16:45:33.850Z,1007.13
2022-10-08T16:50:33.810Z,1007.30
2022-10-08T16:55:33.712Z,1007.25
2022-10-08T17:00:33.741Z,1007.44
2022-10-08T17:05:33.603Z,1007.56
2022-10-08T17:10:33.587Z,1007.59
2022-10-08T17:15:33.555Z,1007.67
2022-10-08T17:20:33.495Z,1007.82
2022-10-08T17:25:33.335Z,1007.92
2022-10-08T17:30:33.463Z,1008.04
2022-10-08T17:35:33.180Z,1008.02
2022-10-08T17:40:33.132Z,1008.06
2022-10-08T17:45:33.060Z,1008.16
2022-10-08T17:50:40.106Z,1008.31
2022-10-08T17:55:32.970Z,1008.31
2022-10-08T18:00:32.867Z,1008.31
2022-10-08T18:05:32.786Z,1008.37
2022-10-08T18:10:33.806Z,1008.55
2022-10-08T18:15:32.723Z,1008.49
2022-10-08T18:20:32.753Z,1008.60
2022-10-08T18:25:32.537Z,1008.61
2022-10-08T18:30:32.455Z,1008.69
2022-10-08T18:35:32.620Z,1008.70
2022-10-08T18:40:32.375Z,1008.80
2022-10-08T18:45:32.315Z,1008.84
2022-10-08T18:50:32.198Z,1008.92
2022-10-08T18:55:32.195Z,1009.00
2022-10-08T19:00:32.067Z,1009.16
2022-10-08T19:05:32.046Z,1009.15
2022-10-08T19:10:32.017Z,1009.19
2022-10-08T19:15:31.967Z,1009.39
2022-10-08T19:20:31.853Z,1009.36
2022-10-08T19:25:31.760Z,1009.44
2022-10-08T19:30:32.894Z,1009.55
2022-10-08T19:35:31.713Z,1009.63
2022-10-08T19:40:31.920Z,1009.60
2022-10-08T19:45:31.589Z,1009.69
2022-10-08T19:50:31.423Z,1009.81
2022-10-08T19:55:31.414Z,1009.89
2022-10-08T20:00:32.377Z,1009.97
2022-10-08T20:05:31.260Z,1010.09
2022-10-08T20:10:31.161Z,1010.17
2022-10-08T20:15:31.148Z,1010.25
2022-10-08T20:20:33.594Z,1010.23
2022-10-08T20:25:31.027Z,1010.33
2022-10-08T20:30:30.891Z,1010.33
2022-10-08T20:35:30.873Z,1010.46
2022-10-08T20:40:30.797Z,1010.45
2022-10-08T20:45:30.871Z,1010.65
2022-10-08T20:50:30.661Z,1010.60
2022-10-08T20:55:30.602Z,1010.67
2022-10-08T21:00:30.535Z,1010.70
2022-10-08T21:05:30.481Z,1010.76
2022-10-08T21:10:30.370Z,1010.69
2022-10-08T21:15:30.293Z,1010.81
2022-10-08T21:20:30.231Z,1010.89
2022-10-08T21:25:30.155Z,1010.85
2022-10-08T21:30:30.102Z,1010.94
2022-10-08T21:35:30.025Z,1010.91
2022-10-08T21:40:29.972Z,1011.02
2022-10-08T21:45:29.960Z,1010.96
2022-10-08T21:50:32.953Z,1011.01
2022-10-08T21:55:30.783Z,1011.05
2022-10-08T22:00:29.766Z,1011.07
2022-10-08T22:05:30.051Z,1011.13
2022-10-08T22:10:31.240Z,1011.17
2022-10-08T22:15:29.583Z,1011.19
2022-10-08T22:20:29.475Z,1011.23
2022-10-08T22:25:29.420Z,1011.34
2022-10-08T22:30:29.276Z,1011.42
2022-10-08T22:35:29.301Z,1011.48
2022-10-08T22:40:29.264Z,1011.43
2022-10-08T22:45:29.157Z,1011.41
2022-10-08T22:50:29.092Z,1011.50
2022-10-08T22:55:29.184Z,1011.53
2022-10-08T23:00:28.952Z,1011.55
2022-10-08T23:05:28.943Z,1011.50
2022-10-08T23:10:28.847Z,1011.62
2022-10-08T23:15:29.609Z,1011.57
2022-10-08T23:20:28.634Z,1011.68
2022-10-08T23:25:28.653Z,1011.75
2022-10-08T23:30:42.497Z,1011.77
2022-10-08T23:35:29.444Z,1011.78
2022-10-08T23:40:28.375Z,1011.85
2022-10-08T23:45:28.343Z,1011.90
2022-10-08T23:50:28.246Z,1011.93
2022-10-08T23:55:28.207Z,1011.95
